sensor_id;sensor_type;location;lat;lon;timestamp;pressure;altitude;pressure_sealevel;temperature;humidity
3434;BME280;1730;41.932;25.548;2024-02-14T00:01:51;99027.16;;;10.32;100.00
3434;BME280;1730;41.932;25.548;2024-02-14T00:04:16;99017.59;;;10.37;100.00
3434;BME280;1730;41.932;25.548;2024-02-14T00:06:42;99006.31;;;10.34;100.00
3434;BME280;1730;41.932;25.548;2024-02-14T00:09:08;98930.81;;;9.74;100.00
3434;BME280;1730;41.932;25.548;2024-02-14T00:11:34;99031.38;;;10.09;100.00
3434;BME280;1730;41.932;25.548;2024-02-14T00:13:59;99024.78;;;10.03;100.00
3434;BME280;1730;41.932;25.548;2024-02-14T00:16:28;99069.34;;;10.15;100.00
3434;BME280;1730;41.932;25.548;2024-02-14T00:18:56;99081.50;;;10.19;100.00
3434;BME280;1730;41.932;25.548;2024-02-14T00:21:22;99097.31;;;10.22;100.00
3434;BME280;1730;41.932;25.548;2024-02-14T00:23:48;99110.72;;;10.14;100.00
3434;BME280;1730;41.932;25.548;2024-02-14T00:26:13;99115.19;;;10.06;100.00
3434;BME280;1730;41.932;25.548;2024-02-14T00:28:38;99014.88;;;9.42;100.00
3434;BME280;1730;41.932;25.548;2024-02-14T00:31:05;99140.09;;;10.17;100.00
3434;BME280;1730;41.932;25.548;2024-02-14T00:33:31;99133.84;;;10.17;100.00
3434;BME280;1730;41.932;25.548;2024-02-14T00:35:56;99115.56;;;10.11;100.00
3434;BME280;1730;41.932;25.548;2024-02-14T00:38:22;99099.56;;;10.09;100.00
3434;BME280;1730;41.932;25.548;2024-02-14T00:40:48;99083.66;;;9.98;100.00
3434;BME280;1730;41.932;25.548;2024-02-14T00:43:13;99067.41;;;10.08;100.00
3434;BME280;1730;41.932;25.548;2024-02-14T00:45:39;99062.34;;;10.05;100.00
3434;BME280;1730;41.932;25.548;2024-02-14T00:48:05;99055.09;;;10.05;100.00
3434;BME280;1730;41.932;25.548;2024-02-14T00:50:30;99049.41;;;10.08;100.00
3434;BME280;1730;41.932;25.548;2024-02-14T00:52:56;99004.97;;;9.86;100.00
3434;BME280;1730;41.932;25.548;2024-02-14T00:55:22;99037.72;;;10.00;100.00
3434;BME280;1730;41.932;25.548;2024-02-14T00:57:48;99003.94;;;9.87;100.00
3434;BME280;1730;41.932;25.548;2024-02-14T01:00:13;99025.09;;;10.00;100.00
3434;BME280;1730;41.932;25.548;2024-02-14T01:02:39;98918.00;;;9.42;100.00
3434;BME280;1730;41.932;25.548;2024-02-14T01:05:05;99032.34;;;10.00;100.00
3434;BME280;1730;41.932;25.548;2024-02-14T01:07:30;99019.72;;;10.00;100.00
3434;BME280;1730;41.932;25.548;2024-02-14T01:09:56;99015.53;;;10.06;100.00
3434;BME280;1730;41.932;25.548;2024-02-14T01:12:22;99017.69;;;10.02;100.00
3434;BME280;1730;41.932;25.548;2024-02-14T01:14:48;98433.66;;;6.54;100.00
3434;BME280;1730;41.932;25.548;2024-02-14T01:17:14;99006.41;;;9.99;100.00
3434;BME280;1730;41.932;25.548;2024-02-14T01:19:39;99015.00;;;10.02;100.00
3434;BME280;1730;41.932;25.548;2024-02-14T01:22:05;99012.06;;;10.13;100.00
3434;BME280;1730;41.932;25.548;2024-02-14T01:24:32;98901.03;;;9.42;100.00
3434;BME280;1730;41.932;25.548;2024-02-14T01:26:58;99009.63;;;10.02;100.00
3434;BME280;1730;41.932;25.548;2024-02-14T01:29:23;98869.53;;;9.34;100.00
3434;BME280;1730;41.932;25.548;2024-02-14T01:31:49;98884.16;;;9.40;100.00
3434;BME280;1730;41.932;25.548;2024-02-14T01:34:15;98854.81;;;9.21;100.00
3434;BME280;1730;41.932;25.548;2024-02-14T01:36:41;98953.22;;;9.75;100.00
3434;BME280;1730;41.932;25.548;2024-02-14T01:39:06;98884.66;;;9.35;100.00
3434;BME280;1730;41.932;25.548;2024-02-14T01:41:45;99006.91;;;10.02;100.00
3434;BME280;1730;41.932;25.548;2024-02-14T01:44:16;98988.63;;;9.88;100.00
3434;BME280;1730;41.932;25.548;2024-02-14T01:46:43;98902.28;;;9.30;100.00
3434;BME280;1730;41.932;25.548;2024-02-14T01:49:10;99019.03;;;9.98;100.00
3434;BME280;1730;41.932;25.548;2024-02-14T01:51:38;99019.63;;;9.92;100.00
3434;BME280;1730;41.932;25.548;2024-02-14T01:54:05;99026.72;;;9.93;100.00
3434;BME280;1730;41.932;25.548;2024-02-14T01:56:31;99028.56;;;9.92;100.00
3434;BME280;1730;41.932;25.548;2024-02-14T01:58:58;98981.63;;;9.69;100.00
3434;BME280;1730;41.932;25.548;2024-02-14T02:01:25;99037.53;;;10.01;100.00
3434;BME280;1730;41.932;25.548;2024-02-14T02:03:51;99024.06;;;10.01;100.00
3434;BME280;1730;41.932;25.548;2024-02-14T02:06:16;99036.50;;;9.94;100.00
3434;BME280;1730;41.932;25.548;2024-02-14T02:08:45;99034.31;;;9.98;100.00
3434;BME280;1730;41.932;25.548;2024-02-14T02:11:11;99047.94;;;9.96;100.00
3434;BME280;1730;41.932;25.548;2024-02-14T02:13:36;99011.81;;;9.81;100.00
3434;BME280;1730;41.932;25.548;2024-02-14T02:16:05;99022.75;;;9.79;100.00
3434;BME280;1730;41.932;25.548;2024-02-14T02:18:34;99054.59;;;9.84;100.00
3434;BME280;1730;41.932;25.548;2024-02-14T02:20:59;98776.06;;;8.14;100.00
3434;BME280;1730;41.932;25.548;2024-02-14T02:23:25;99086.63;;;9.87;100.00
3434;BME280;1730;41.932;25.548;2024-02-14T02:25:50;99051.25;;;9.64;100.00
3434;BME280;1730;41.932;25.548;2024-02-14T02:28:16;99088.75;;;9.83;100.00
3434;BME280;1730;41.932;25.548;2024-02-14T02:30:42;98984.44;;;9.24;100.00
3434;BME280;1730;41.932;25.548;2024-02-14T02:33:08;98879.87;;;8.50;100.00
3434;BME280;1730;41.932;25.548;2024-02-14T02:35:34;99042.78;;;9.41;100.00
3434;BME280;1730;41.932;25.548;2024-02-14T02:38:00;99114.06;;;9.73;100.00
3434;BME280;1730;41.932;25.548;2024-02-14T02:40:25;99110.13;;;9.85;100.00
3434;BME280;1730;41.932;25.548;2024-02-14T02:42:53;99125.44;;;9.84;100.00
3434;BME280;1730;41.932;25.548;2024-02-14T02:45:18;99083.53;;;9.64;100.00
3434;BME280;1730;41.932;25.548;2024-02-14T02:47:44;99109.28;;;9.67;100.00
3434;BME280;1730;41.932;25.548;2024-02-14T02:50:09;98808.97;;;7.98;100.00
3434;BME280;1730;41.932;25.548;2024-02-14T02:52:35;99087.94;;;9.65;100.00
3434;BME280;1730;41.932;25.548;2024-02-14T02:55:00;99110.47;;;9.82;100.00
3434;BME280;1730;41.932;25.548;2024-02-14T02:57:28;99074.62;;;9.64;100.00
3434;BME280;1730;41.932;25.548;2024-02-14T02:59:53;99107.44;;;9.67;100.00
3434;BME280;1730;41.932;25.548;2024-02-14T03:02:19;99112.62;;;9.78;100.00
3434;BME280;1730;41.932;25.548;2024-02-14T03:04:46;98941.53;;;8.70;100.00
3434;BME280;1730;41.932;25.548;2024-02-14T03:07:12;99111.38;;;9.73;100.00
3434;BME280;1730;41.932;25.548;2024-02-14T03:09:38;99121.44;;;9.71;100.00
3434;BME280;1730;41.932;25.548;2024-02-14T03:12:04;99092.75;;;9.44;100.00
3434;BME280;1730;41.932;25.548;2024-02-14T03:14:31;99141.06;;;9.63;100.00
3434;BME280;1730;41.932;25.548;2024-02-14T03:17:04;99143.75;;;9.63;100.00
3434;BME280;1730;41.932;25.548;2024-02-14T03:19:30;99159.44;;;9.68;100.00
3434;BME280;1730;41.932;25.548;2024-02-14T03:21:56;99152.75;;;9.72;100.00
3434;BME280;1730;41.932;25.548;2024-02-14T03:24:22;99093.28;;;9.30;100.00
3434;BME280;1730;41.932;25.548;2024-02-14T03:26:51;99148.28;;;9.63;100.00
3434;BME280;1730;41.932;25.548;2024-02-14T03:29:16;99140.81;;;9.74;100.00
3434;BME280;1730;41.932;25.548;2024-02-14T03:31:42;99005.13;;;8.79;100.00
3434;BME280;1730;41.932;25.548;2024-02-14T03:34:09;99148.16;;;9.64;100.00
3434;BME280;1730;41.932;25.548;2024-02-14T03:36:37;98998.06;;;8.78;100.00
3434;BME280;1730;41.932;25.548;2024-02-14T03:39:03;99097.56;;;9.23;100.00
3434;BME280;1730;41.932;25.548;2024-02-14T03:41:29;99026.19;;;8.83;100.00
3434;BME280;1730;41.932;25.548;2024-02-14T03:43:55;99135.06;;;9.52;100.00
3434;BME280;1730;41.932;25.548;2024-02-14T03:46:24;99159.81;;;9.55;100.00
3434;BME280;1730;41.932;25.548;2024-02-14T03:48:49;99123.16;;;9.27;100.00
3434;BME280;1730;41.932;25.548;2024-02-14T03:51:15;99166.50;;;9.51;100.00
3434;BME280;1730;41.932;25.548;2024-02-14T03:53:42;99148.91;;;9.39;100.00
3434;BME280;1730;41.932;25.548;2024-02-14T03:56:07;99032.91;;;8.70;100.00
3434;BME280;1730;41.932;25.548;2024-02-14T03:58:33;99057.16;;;8.87;100.00
3434;BME280;1730;41.932;25.548;2024-02-14T04:01:03;99184.28;;;9.62;100.00
3434;BME280;1730;41.932;25.548;2024-02-14T04:03:28;99163.88;;;9.41;100.00
3434;BME280;1730;41.932;25.548;2024-02-14T04:05:54;99159.44;;;9.50;100.00
3434;BME280;1730;41.932;25.548;2024-02-14T04:08:19;99185.03;;;9.54;100.00
3434;BME280;1730;41.932;25.548;2024-02-14T04:10:47;99082.84;;;8.99;100.00
3434;BME280;1730;41.932;25.548;2024-02-14T04:13:14;99187.34;;;9.49;100.00
3434;BME280;1730;41.932;25.548;2024-02-14T04:15:40;99200.28;;;9.63;100.00
3434;BME280;1730;41.932;25.548;2024-02-14T04:18:12;99196.53;;;9.56;100.00
3434;BME280;1730;41.932;25.548;2024-02-14T04:20:37;99202.09;;;9.45;100.00
3434;BME280;1730;41.932;25.548;2024-02-14T04:23:03;99093.44;;;8.74;100.00
3434;BME280;1730;41.932;25.548;2024-02-14T04:25:32;99218.94;;;9.47;100.00
3434;BME280;1730;41.932;25.548;2024-02-14T04:27:57;99154.00;;;9.05;100.00
3434;BME280;1730;41.932;25.548;2024-02-14T04:30:25;99111.88;;;8.69;100.00
3434;BME280;1730;41.932;25.548;2024-02-14T04:32:50;99095.75;;;8.69;100.00
3434;BME280;1730;41.932;25.548;2024-02-14T04:35:17;99199.09;;;9.48;100.00
3434;BME280;1730;41.932;25.548;2024-02-14T04:37:42;99058.66;;;8.72;100.00
3434;BME280;1730;41.932;25.548;2024-02-14T04:40:12;99188.59;;;9.55;100.00
3434;BME280;1730;41.932;25.548;2024-02-14T04:42:38;99208.94;;;9.57;100.00
3434;BME280;1730;41.932;25.548;2024-02-14T04:45:04;99210.03;;;9.46;100.00
3434;BME280;1730;41.932;25.548;2024-02-14T04:47:29;99145.91;;;9.15;100.00
3434;BME280;1730;41.932;25.548;2024-02-14T04:49:55;99205.91;;;9.52;100.00
3434;BME280;1730;41.932;25.548;2024-02-14T04:52:20;99244.97;;;9.56;100.00
3434;BME280;1730;41.932;25.548;2024-02-14T04:54:46;98969.59;;;8.03;100.00
3434;BME280;1730;41.932;25.548;2024-02-14T04:57:12;99201.47;;;9.33;100.00
3434;BME280;1730;41.932;25.548;2024-02-14T04:59:44;99234.94;;;9.48;100.00
3434;BME280;1730;41.932;25.548;2024-02-14T05:02:10;99222.41;;;9.57;100.00
3434;BME280;1730;41.932;25.548;2024-02-14T05:04:36;99224.44;;;9.55;100.00
3434;BME280;1730;41.932;25.548;2024-02-14T05:07:03;99172.75;;;9.24;100.00
3434;BME280;1730;41.932;25.548;2024-02-14T05:09:29;99154.09;;;9.13;100.00
3434;BME280;1730;41.932;25.548;2024-02-14T05:11:55;99233.44;;;9.64;100.00
3434;BME280;1730;41.932;25.548;2024-02-14T05:14:20;99236.13;;;9.64;100.00
3434;BME280;1730;41.932;25.548;2024-02-14T05:16:46;99239.91;;;9.71;100.00
3434;BME280;1730;41.932;25.548;2024-02-14T05:19:11;99115.75;;;8.84;100.00
3434;BME280;1730;41.932;25.548;2024-02-14T05:21:37;99245.66;;;9.58;100.00
3434;BME280;1730;41.932;25.548;2024-02-14T05:24:04;99196.88;;;9.16;100.00
3434;BME280;1730;41.932;25.548;2024-02-14T05:26:29;99273.28;;;9.60;100.00
3434;BME280;1730;41.932;25.548;2024-02-14T05:28:55;99257.03;;;9.52;100.00
3434;BME280;1730;41.932;25.548;2024-02-14T05:31:20;99281.28;;;9.70;100.00
3434;BME280;1730;41.932;25.548;2024-02-14T05:33:46;99250.31;;;9.83;100.00
3434;BME280;1730;41.932;25.548;2024-02-14T05:36:11;99256.28;;;10.05;100.00
3434;BME280;1730;41.932;25.548;2024-02-14T05:38:37;99083.25;;;9.04;100.00
3434;BME280;1730;41.932;25.548;2024-02-14T05:41:02;99228.88;;;9.91;100.00
3434;BME280;1730;41.932;25.548;2024-02-14T05:43:28;99098.41;;;9.23;100.00
3434;BME280;1730;41.932;25.548;2024-02-14T05:45:54;99204.16;;;10.14;100.00
3434;BME280;1730;41.932;25.548;2024-02-14T05:48:20;99179.44;;;10.01;100.00
3434;BME280;1730;41.932;25.548;2024-02-14T05:50:45;99193.16;;;10.07;100.00
3434;BME280;1730;41.932;25.548;2024-02-14T05:53:11;99197.84;;;10.05;100.00
3434;BME280;1730;41.932;25.548;2024-02-14T05:55:38;99205.12;;;10.05;100.00
3434;BME280;1730;41.932;25.548;2024-02-14T05:58:04;99213.09;;;10.14;100.00
3434;BME280;1730;41.932;25.548;2024-02-14T06:00:29;99225.94;;;10.03;100.00
3434;BME280;1730;41.932;25.548;2024-02-14T06:02:55;99220.09;;;10.07;100.00
3434;BME280;1730;41.932;25.548;2024-02-14T06:05:21;99225.88;;;10.12;100.00
3434;BME280;1730;41.932;25.548;2024-02-14T06:07:47;99227.34;;;10.07;100.00
3434;BME280;1730;41.932;25.548;2024-02-14T06:10:13;99225.13;;;10.20;100.00
3434;BME280;1730;41.932;25.548;2024-02-14T06:12:39;99230.87;;;9.89;100.00
3434;BME280;1730;41.932;25.548;2024-02-14T06:15:09;99244.88;;;9.93;100.00
3434;BME280;1730;41.932;25.548;2024-02-14T06:17:34;99260.56;;;9.98;100.00
3434;BME280;1730;41.932;25.548;2024-02-14T06:20:00;99258.16;;;9.77;100.00
3434;BME280;1730;41.932;25.548;2024-02-14T06:22:31;99232.72;;;9.62;100.00
3434;BME280;1730;41.932;25.548;2024-02-14T06:24:58;99286.47;;;9.81;100.00
3434;BME280;1730;41.932;25.548;2024-02-14T06:27:24;99328.66;;;9.90;100.00
3434;BME280;1730;41.932;25.548;2024-02-14T06:29:49;99294.41;;;9.82;100.00
3434;BME280;1730;41.932;25.548;2024-02-14T06:32:15;99187.19;;;9.23;100.00
3434;BME280;1730;41.932;25.548;2024-02-14T06:34:40;99177.09;;;9.08;100.00
3434;BME280;1730;41.932;25.548;2024-02-14T06:37:07;99289.22;;;9.99;100.00
3434;BME280;1730;41.932;25.548;2024-02-14T06:39:32;99075.78;;;8.71;100.00
3434;BME280;1730;41.932;25.548;2024-02-14T06:41:58;99264.19;;;9.88;100.00
3434;BME280;1730;41.932;25.548;2024-02-14T06:44:24;99151.47;;;9.31;100.00
3434;BME280;1730;41.932;25.548;2024-02-14T06:46:49;99265.28;;;9.95;100.00
3434;BME280;1730;41.932;25.548;2024-02-14T06:49:18;99269.78;;;10.22;100.00
3434;BME280;1730;41.932;25.548;2024-02-14T06:51:43;99147.69;;;9.51;100.00
3434;BME280;1730;41.932;25.548;2024-02-14T06:54:10;99174.31;;;9.72;100.00
3434;BME280;1730;41.932;25.548;2024-02-14T06:56:35;99268.00;;;10.13;100.00
3434;BME280;1730;41.932;25.548;2024-02-14T06:59:01;99185.53;;;9.67;100.00
3434;BME280;1730;41.932;25.548;2024-02-14T07:01:29;99270.41;;;10.16;100.00
3434;BME280;1730;41.932;25.548;2024-02-14T07:03:55;99226.72;;;9.95;100.00
3434;BME280;1730;41.932;25.548;2024-02-14T07:06:22;99290.69;;;10.11;100.00
3434;BME280;1730;41.932;25.548;2024-02-14T07:08:47;99214.09;;;9.78;100.00
3434;BME280;1730;41.932;25.548;2024-02-14T07:11:14;99298.91;;;10.36;100.00
3434;BME280;1730;41.932;25.548;2024-02-14T07:13:41;99264.63;;;10.29;100.00
3434;BME280;1730;41.932;25.548;2024-02-14T07:16:07;99281.78;;;10.28;100.00
3434;BME280;1730;41.932;25.548;2024-02-14T07:18:34;99296.59;;;10.24;100.00
3434;BME280;1730;41.932;25.548;2024-02-14T07:21:05;99333.47;;;10.41;100.00
3434;BME280;1730;41.932;25.548;2024-02-14T07:23:33;99364.59;;;10.35;100.00
3434;BME280;1730;41.932;25.548;2024-02-14T07:25:59;99405.44;;;10.58;100.00
3434;BME280;1730;41.932;25.548;2024-02-14T07:28:26;99399.28;;;10.21;100.00
3434;BME280;1730;41.932;25.548;2024-02-14T07:30:51;99436.72;;;10.51;100.00
3434;BME280;1730;41.932;25.548;2024-02-14T07:33:17;99239.59;;;9.19;100.00
3434;BME280;1730;41.932;25.548;2024-02-14T07:35:44;99455.16;;;10.19;100.00
3434;BME280;1730;41.932;25.548;2024-02-14T07:38:09;99455.34;;;10.08;100.00
3434;BME280;1730;41.932;25.548;2024-02-14T07:40:35;99251.88;;;8.85;100.00
3434;BME280;1730;41.932;25.548;2024-02-14T07:43:01;99388.53;;;9.74;100.00
3434;BME280;1730;41.932;25.548;2024-02-14T07:45:27;99499.47;;;10.44;100.00
3434;BME280;1730;41.932;25.548;2024-02-14T07:47:53;99477.94;;;10.34;100.00
3434;BME280;1730;41.932;25.548;2024-02-14T07:50:18;99479.66;;;10.35;100.00
3434;BME280;1730;41.932;25.548;2024-02-14T07:52:44;99507.06;;;10.21;100.00
3434;BME280;1730;41.932;25.548;2024-02-14T07:55:11;99561.81;;;10.12;100.00
3434;BME280;1730;41.932;25.548;2024-02-14T07:57:40;99602.53;;;9.99;100.00
3434;BME280;1730;41.932;25.548;2024-02-14T08:00:07;99653.84;;;10.07;100.00
3434;BME280;1730;41.932;25.548;2024-02-14T08:02:36;99719.75;;;9.93;100.00
3434;BME280;1730;41.932;25.548;2024-02-14T08:05:02;99763.16;;;10.10;100.00
3434;BME280;1730;41.932;25.548;2024-02-14T08:07:30;99804.53;;;9.89;100.00
3434;BME280;1730;41.932;25.548;2024-02-14T08:09:56;99839.19;;;10.04;100.00
3434;BME280;1730;41.932;25.548;2024-02-14T08:12:22;99833.06;;;10.02;100.00
3434;BME280;1730;41.932;25.548;2024-02-14T08:14:48;99803.00;;;9.87;100.00
3434;BME280;1730;41.932;25.548;2024-02-14T08:17:14;99785.84;;;9.98;100.00
3434;BME280;1730;41.932;25.548;2024-02-14T08:19:39;99772.66;;;10.14;100.00
3434;BME280;1730;41.932;25.548;2024-02-14T08:22:05;99422.34;;;8.04;100.00
3434;BME280;1730;41.932;25.548;2024-02-14T08:24:32;99773.53;;;10.14;100.00
3434;BME280;1730;41.932;25.548;2024-02-14T08:26:57;99390.47;;;7.80;100.00
3434;BME280;1730;41.932;25.548;2024-02-14T08:29:23;99778.31;;;10.01;100.00
3434;BME280;1730;41.932;25.548;2024-02-14T08:31:50;99637.50;;;9.32;100.00
3434;BME280;1730;41.932;25.548;2024-02-14T08:34:16;99433.06;;;8.04;100.00
3434;BME280;1730;41.932;25.548;2024-02-14T08:36:42;99787.91;;;10.34;100.00
3434;BME280;1730;41.932;25.548;2024-02-14T08:39:08;99778.38;;;10.20;100.00
3434;BME280;1730;41.932;25.548;2024-02-14T08:41:39;99695.66;;;9.73;100.00
3434;BME280;1730;41.932;25.548;2024-02-14T08:44:06;99403.38;;;7.96;100.00
3434;BME280;1730;41.932;25.548;2024-02-14T08:46:32;99761.88;;;10.14;100.00
3434;BME280;1730;41.932;25.548;2024-02-14T08:49:00;99776.53;;;10.40;100.00
3434;BME280;1730;41.932;25.548;2024-02-14T08:51:28;99791.59;;;10.43;100.00
3434;BME280;1730;41.932;25.548;2024-02-14T08:53:54;99702.16;;;9.80;100.00
3434;BME280;1730;41.932;25.548;2024-02-14T08:56:25;99754.28;;;10.57;100.00
3434;BME280;1730;41.932;25.548;2024-02-14T08:58:51;99733.69;;;10.47;100.00
3434;BME280;1730;41.932;25.548;2024-02-14T09:01:16;99743.50;;;10.57;100.00
3434;BME280;1730;41.932;25.548;2024-02-14T09:03:45;99585.22;;;9.92;100.00
3434;BME280;1730;41.932;25.548;2024-02-14T09:06:15;99688.19;;;10.80;100.00
3434;BME280;1730;41.932;25.548;2024-02-14T09:08:41;99499.91;;;9.83;100.00
3434;BME280;1730;41.932;25.548;2024-02-14T09:11:08;99539.09;;;10.14;100.00
3434;BME280;1730;41.932;25.548;2024-02-14T09:13:35;99170.94;;;8.03;100.00
3434;BME280;1730;41.932;25.548;2024-02-14T09:16:01;99258.56;;;8.62;100.00
3434;BME280;1730;41.932;25.548;2024-02-14T09:18:27;99257.47;;;8.54;100.00
3434;BME280;1730;41.932;25.548;2024-02-14T09:20:53;99501.91;;;9.81;100.00
3434;BME280;1730;41.932;25.548;2024-02-14T09:23:18;99642.47;;;10.42;100.00
3434;BME280;1730;41.932;25.548;2024-02-14T09:25:46;99663.91;;;10.34;100.00
3434;BME280;1730;41.932;25.548;2024-02-14T09:28:12;99602.81;;;10.15;100.00
3434;BME280;1730;41.932;25.548;2024-02-14T09:30:40;99690.78;;;10.72;100.00
3434;BME280;1730;41.932;25.548;2024-02-14T09:33:05;99704.37;;;10.80;100.00
3434;BME280;1730;41.932;25.548;2024-02-14T09:35:31;99717.19;;;10.78;100.00
3434;BME280;1730;41.932;25.548;2024-02-14T09:37:57;99731.91;;;10.94;100.00
3434;BME280;1730;41.932;25.548;2024-02-14T09:40:25;99725.25;;;10.88;100.00
3434;BME280;1730;41.932;25.548;2024-02-14T09:42:55;99698.34;;;10.59;100.00
3434;BME280;1730;41.932;25.548;2024-02-14T09:45:26;99702.13;;;10.76;100.00
3434;BME280;1730;41.932;25.548;2024-02-14T09:47:53;99661.34;;;10.42;100.00
3434;BME280;1730;41.932;25.548;2024-02-14T09:50:19;99519.91;;;9.90;100.00
3434;BME280;1730;41.932;25.548;2024-02-14T09:52:47;99673.69;;;10.91;100.00
3434;BME280;1730;41.932;25.548;2024-02-14T09:55:17;99640.97;;;11.04;100.00
3434;BME280;1730;41.932;25.548;2024-02-14T09:57:43;99620.37;;;11.03;100.00
3434;BME280;1730;41.932;25.548;2024-02-14T10:00:11;99604.94;;;10.95;100.00
3434;BME280;1730;41.932;25.548;2024-02-14T10:02:40;99612.34;;;10.93;100.00
3434;BME280;1730;41.932;25.548;2024-02-14T10:05:06;99597.78;;;10.76;100.00
3434;BME280;1730;41.932;25.548;2024-02-14T10:07:41;99604.19;;;10.75;100.00
3434;BME280;1730;41.932;25.548;2024-02-14T10:10:08;99495.12;;;10.14;100.00
3434;BME280;1730;41.932;25.548;2024-02-14T10:12:33;99559.78;;;10.70;100.00
3434;BME280;1730;41.932;25.548;2024-02-14T10:14:59;99579.81;;;10.67;100.00
3434;BME280;1730;41.932;25.548;2024-02-14T10:17:26;99522.28;;;10.76;100.00
3434;BME280;1730;41.932;25.548;2024-02-14T10:19:58;99284.50;;;9.56;100.00
3434;BME280;1730;41.932;25.548;2024-02-14T10:22:24;99483.56;;;11.13;100.00
3434;BME280;1730;41.932;25.548;2024-02-14T10:27:31;99461.25;;;11.46;100.00
3434;BME280;1730;41.932;25.548;2024-02-14T10:29:59;99435.31;;;11.53;100.00
3434;BME280;1730;41.932;25.548;2024-02-14T10:32:26;99429.37;;;11.93;100.00
3434;BME280;1730;41.932;25.548;2024-02-14T10:34:52;99393.09;;;12.04;100.00
3434;BME280;1730;41.932;25.548;2024-02-14T10:37:18;99392.22;;;11.95;100.00
3434;BME280;1730;41.932;25.548;2024-02-14T10:39:46;99289.44;;;11.19;100.00
3434;BME280;1730;41.932;25.548;2024-02-14T10:42:14;99457.28;;;12.86;100.00
3434;BME280;1730;41.932;25.548;2024-02-14T10:44:40;99154.97;;;11.49;100.00
3434;BME280;1730;41.932;25.548;2024-02-14T10:47:10;99233.44;;;11.47;100.00
3434;BME280;1730;41.932;25.548;2024-02-14T10:49:40;99018.25;;;10.14;100.00
3434;BME280;1730;41.932;25.548;2024-02-14T10:52:08;99301.34;;;11.60;100.00
3434;BME280;1730;41.932;25.548;2024-02-14T10:54:35;99316.25;;;11.39;100.00
3434;BME280;1730;41.932;25.548;2024-02-14T10:57:05;98825.88;;;8.79;100.00
3434;BME280;1730;41.932;25.548;2024-02-14T10:59:41;99206.59;;;11.12;100.00
3434;BME280;1730;41.932;25.548;2024-02-14T11:02:09;99122.94;;;10.70;100.00
3434;BME280;1730;41.932;25.548;2024-02-14T11:04:36;99280.19;;;11.48;100.00
3434;BME280;1730;41.932;25.548;2024-02-14T11:07:02;99276.75;;;11.38;100.00
3434;BME280;1730;41.932;25.548;2024-02-14T11:09:33;99284.84;;;11.38;100.00
3434;BME280;1730;41.932;25.548;2024-02-14T11:12:01;99058.31;;;10.26;100.00
3434;BME280;1730;41.932;25.548;2024-02-14T11:14:34;99255.03;;;11.47;100.00
3434;BME280;1730;41.932;25.548;2024-02-14T11:17:01;99283.22;;;11.45;100.00
3434;BME280;1730;41.932;25.548;2024-02-14T11:19:33;99289.25;;;11.39;100.00
3434;BME280;1730;41.932;25.548;2024-02-14T11:22:10;99311.09;;;11.53;100.00
3434;BME280;1730;41.932;25.548;2024-02-14T11:24:40;99291.47;;;11.43;100.00
3434;BME280;1730;41.932;25.548;2024-02-14T11:27:10;99259.69;;;11.37;100.00
3434;BME280;1730;41.932;25.548;2024-02-14T11:29:39;99251.81;;;11.44;100.00
3434;BME280;1730;41.932;25.548;2024-02-14T11:32:08;99303.34;;;11.84;100.00
3434;BME280;1730;41.932;25.548;2024-02-14T11:34:35;99149.88;;;10.96;100.00
3434;BME280;1730;41.932;25.548;2024-02-14T11:37:01;99233.94;;;11.51;100.00
3434;BME280;1730;41.932;25.548;2024-02-14T11:39:28;99293.91;;;11.88;100.00
3434;BME280;1730;41.932;25.548;2024-02-14T11:41:53;99298.47;;;11.96;100.00
3434;BME280;1730;41.932;25.548;2024-02-14T11:44:21;99270.75;;;11.94;100.00
3434;BME280;1730;41.932;25.548;2024-02-14T11:46:51;99232.59;;;11.47;100.00
3434;BME280;1730;41.932;25.548;2024-02-14T11:49:16;99268.03;;;11.52;100.00
3434;BME280;1730;41.932;25.548;2024-02-14T11:51:42;99194.16;;;11.19;100.00
3434;BME280;1730;41.932;25.548;2024-02-14T11:54:09;99258.03;;;11.36;100.00
3434;BME280;1730;41.932;25.548;2024-02-14T11:56:37;99224.56;;;11.29;100.00
3434;BME280;1730;41.932;25.548;2024-02-14T11:59:04;99275.34;;;11.59;100.00
3434;BME280;1730;41.932;25.548;2024-02-14T12:01:33;99276.19;;;11.60;100.00
3434;BME280;1730;41.932;25.548;2024-02-14T12:03:59;99276.47;;;11.83;100.00
3434;BME280;1730;41.932;25.548;2024-02-14T12:06:29;99279.22;;;11.99;100.00
3434;BME280;1730;41.932;25.548;2024-02-14T12:09:03;99057.88;;;10.73;100.00
3434;BME280;1730;41.932;25.548;2024-02-14T12:11:38;99214.94;;;12.10;100.00
3434;BME280;1730;41.932;25.548;2024-02-14T12:14:10;99226.59;;;12.11;100.00
3434;BME280;1730;41.932;25.548;2024-02-14T12:16:37;99078.91;;;11.03;100.00
3434;BME280;1730;41.932;25.548;2024-02-14T12:19:07;99211.53;;;12.08;100.00
3434;BME280;1730;41.932;25.548;2024-02-14T12:21:38;99037.88;;;10.83;100.00
3434;BME280;1730;41.932;25.548;2024-02-14T12:24:12;99184.31;;;11.44;100.00
3434;BME280;1730;41.932;25.548;2024-02-14T12:26:40;99212.25;;;11.68;100.00
3434;BME280;1730;41.932;25.548;2024-02-14T12:29:12;99040.31;;;10.61;100.00
3434;BME280;1730;41.932;25.548;2024-02-14T12:31:41;99225.78;;;11.77;100.00
3434;BME280;1730;41.932;25.548;2024-02-14T12:34:10;99214.69;;;11.88;100.00
3434;BME280;1730;41.932;25.548;2024-02-14T12:36:37;99221.09;;;11.87;100.00
3434;BME280;1730;41.932;25.548;2024-02-14T12:39:03;99195.00;;;11.53;100.00
3434;BME280;1730;41.932;25.548;2024-02-14T12:41:30;99211.13;;;11.79;100.00
3434;BME280;1730;41.932;25.548;2024-02-14T12:43:56;99210.28;;;11.79;100.00
3434;BME280;1730;41.932;25.548;2024-02-14T12:46:22;99187.06;;;11.60;100.00
3434;BME280;1730;41.932;25.548;2024-02-14T12:48:48;99047.47;;;10.86;100.00
3434;BME280;1730;41.932;25.548;2024-02-14T12:51:14;99143.00;;;11.51;100.00
3434;BME280;1730;41.932;25.548;2024-02-14T12:53:40;99204.12;;;12.10;100.00
3434;BME280;1730;41.932;25.548;2024-02-14T12:56:07;99214.09;;;12.18;100.00
3434;BME280;1730;41.932;25.548;2024-02-14T12:58:33;99088.69;;;11.62;100.00
3434;BME280;1730;41.932;25.548;2024-02-14T13:00:59;98982.09;;;10.92;100.00
3434;BME280;1730;41.932;25.548;2024-02-14T13:03:26;99230.59;;;11.99;100.00
3434;BME280;1730;41.932;25.548;2024-02-14T13:05:52;99189.25;;;12.14;100.00